createdAt,value
2019-05-23T00:00:26.585Z,12.58
2019-05-23T00:01:26.577Z,12.26
2019-05-23T00:02:26.577Z,5.85
2019-05-23T00:03:26.555Z,11.15
2019-05-23T00:04:26.568Z,9.81
2019-05-23T00:05:26.535Z,10.81
2019-05-23T00:06:26.626Z,13.37
2019-05-23T00:07:26.503Z,12.45
2019-05-23T00:08:26.504Z,12.96
2019-05-23T00:09:26.488Z,13.72
2019-05-23T00:10:26.521Z,12.90
2019-05-23T00:11:26.466Z,12.70
2019-05-23T00:12:26.451Z,16.85
2019-05-23T00:13:26.441Z,9.72
2019-05-23T00:14:26.435Z,10.80
2019-05-23T00:15:26.417Z,10.05
2019-05-23T00:16:26.433Z,12.46
2019-05-23T00:17:26.393Z,14.24
2019-05-23T00:18:26.384Z,9.90
2019-05-23T00:19:26.375Z,5.34
2019-05-23T00:20:26.363Z,3.86
2019-05-23T00:21:26.357Z,0.11
2019-05-23T00:22:26.539Z,-0.64
2019-05-23T00:23:26.327Z,5.14
2019-05-23T00:24:26.329Z,5.32
2019-05-23T00:25:26.305Z,3.88
2019-05-23T00:26:26.296Z,5.99
2019-05-23T00:27:26.279Z,1.71
2019-05-23T00:28:26.268Z,-4.44
2019-05-23T00:29:26.263Z,-2.85
2019-05-23T00:30:26.265Z,-2.76
2019-05-23T00:31:26.238Z,1.50
2019-05-23T00:32:26.220Z,-1.16
2019-05-23T00:33:26.207Z,-2.57
2019-05-23T00:34:26.263Z,-2.92
2019-05-23T00:35:26.190Z,-4.96
2019-05-23T00:36:26.202Z,-4.26
2019-05-23T00:37:26.170Z,-2.53
2019-05-23T00:38:26.156Z,0.31
2019-05-23T00:39:26.149Z,-0.77
2019-05-23T00:40:26.131Z,-0.62
2019-05-23T00:41:26.127Z,-4.40
2019-05-23T00:42:26.132Z,4.25
2019-05-23T00:43:26.102Z,-2.82
2019-05-23T00:44:26.086Z,0.77
2019-05-23T00:45:26.116Z,0.96
2019-05-23T00:46:26.087Z,0.57
2019-05-23T00:47:26.060Z,0.55
2019-05-23T00:48:26.044Z,-2.83
2019-05-23T00:49:26.076Z,-1.13
2019-05-23T00:50:26.023Z,-4.40
2019-05-23T00:51:26.011Z,-4.66
2019-05-23T00:52:25.993Z,-2.42
2019-05-23T00:53:25.989Z,-0.51
2019-05-23T00:54:25.982Z,-2.67
2019-05-23T00:55:25.982Z,-3.32
2019-05-23T00:56:25.948Z,2.04
2019-05-23T00:57:25.942Z,1.20
2019-05-23T00:58:25.942Z,1.27
2019-05-23T00:59:27.746Z,1.08
2019-05-23T01:00:25.924Z,-1.63
2019-05-23T01:01:25.894Z,6.40
2019-05-23T01:02:25.885Z,-0.80
2019-05-23T01:03:25.866Z,1.14
2019-05-23T01:04:25.856Z,0.57
2019-05-23T01:05:25.852Z,1.75
2019-05-23T01:06:25.860Z,-0.45
2019-05-23T01:07:25.828Z,-2.44
2019-05-23T01:08:25.810Z,-1.18
2019-05-23T01:09:25.795Z,-0.95
2019-05-23T01:10:25.792Z,-0.03
2019-05-23T01:11:25.784Z,-0.39
2019-05-23T01:12:25.838Z,5.78
2019-05-23T01:13:25.769Z,3.37
2019-05-23T01:14:25.749Z,0.25
2019-05-23T01:15:25.730Z,1.09
2019-05-23T01:16:25.718Z,3.88
2019-05-23T01:17:25.714Z,1.00
2019-05-23T01:18:25.704Z,3.91
2019-05-23T01:19:25.720Z,5.14
2019-05-23T01:20:25.681Z,2.28
2019-05-23T01:21:25.670Z,2.23
2019-05-23T01:22:25.654Z,3.10
2019-05-23T01:23:25.652Z,-0.39
2019-05-23T01:24:25.628Z,1.34
2019-05-23T01:25:25.640Z,-1.93
2019-05-23T01:26:25.607Z,-1.01
2019-05-23T01:27:25.596Z,0.72
2019-05-23T01:28:25.588Z,1.46
2019-05-23T01:29:25.594Z,1.25
2019-05-23T01:30:25.566Z,1.32
2019-05-23T01:31:25.575Z,0.03
2019-05-23T01:32:25.542Z,0.23
2019-05-23T01:33:25.529Z,0.84
2019-05-23T01:34:25.529Z,-0.10
2019-05-23T01:35:25.501Z,2.14
2019-05-23T01:36:25.497Z,2.98
2019-05-23T01:37:25.494Z,2.63
2019-05-23T01:38:25.497Z,0.49
2019-05-23T01:39:25.631Z,4.56
2019-05-23T01:40:25.457Z,-0.30
2019-05-23T01:41:25.441Z,6.17
2019-05-23T01:42:25.433Z,7.07
2019-05-23T01:43:25.419Z,5.29
2019-05-23T01:44:25.405Z,10.04
2019-05-23T01:45:25.419Z,8.79
2019-05-23T01:46:25.383Z,8.98
2019-05-23T01:47:25.379Z,6.41
2019-05-23T01:48:25.369Z,7.34
2019-05-23T01:49:25.351Z,8.11
2019-05-23T01:50:25.350Z,9.83
2019-05-23T01:51:25.331Z,13.07
2019-05-23T01:52:25.366Z,10.23
2019-05-23T01:53:25.305Z,10.64
2019-05-23T01:54:25.297Z,10.82
2019-05-23T01:55:25.291Z,12.81
2019-05-23T01:56:25.277Z,11.68
2019-05-23T01:57:25.270Z,10.51
2019-05-23T01:58:25.249Z,8.47
2019-05-23T01:59:25.263Z,11.37
2019-05-23T02:00:25.229Z,13.78
2019-05-23T02:01:25.225Z,13.29
2019-05-23T02:02:25.221Z,15.10
2019-05-23T02:03:25.204Z,14.46
2019-05-23T02:04:25.212Z,14.03
2019-05-23T02:05:25.206Z,14.92
2019-05-23T02:06:25.186Z,12.81
2019-05-23T02:07:25.148Z,11.61
2019-05-23T02:08:25.142Z,11.90
2019-05-23T02:09:25.131Z,13.19
2019-05-23T02:10:25.119Z,13.32
2019-05-23T02:11:25.107Z,17.02
2019-05-23T02:12:25.117Z,15.53
2019-05-23T02:13:25.089Z,15.72
2019-05-23T02:14:25.132Z,14.85
2019-05-23T02:15:25.068Z,16.03
2019-05-23T02:16:25.055Z,14.27
2019-05-23T02:17:25.048Z,13.80
2019-05-23T02:18:25.032Z,12.60
2019-05-23T02:19:25.020Z,7.72
2019-05-23T02:20:25.051Z,4.70
2019-05-23T02:21:24.994Z,10.71
2019-05-23T02:22:24.989Z,12.28
2019-05-23T02:23:24.975Z,9.66
2019-05-23T02:24:24.962Z,13.29
2019-05-23T02:25:24.954Z,16.49
2019-05-23T02:26:24.952Z,14.15
2019-05-23T02:27:24.935Z,15.62
2019-05-23T02:28:24.926Z,17.68
2019-05-23T02:29:24.906Z,16.32
2019-05-23T02:30:34.747Z,17.73
2019-05-23T02:31:25.906Z,17.77
2019-05-23T02:32:24.882Z,22.76
2019-05-23T02:33:24.870Z,18.86
2019-05-23T02:34:24.878Z,19.39
2019-05-23T02:35:24.862Z,19.46
2019-05-23T02:36:24.834Z,22.34
2019-05-23T02:37:24.832Z,20.79
2019-05-23T02:38:24.828Z,21.48
2019-05-23T02:39:24.802Z,19.82
2019-05-23T02:40:24.808Z,20.87
2019-05-23T02:41:24.786Z,21.73
2019-05-23T02:42:24.770Z,19.71
2019-05-23T02:43:24.759Z,23.65
2019-05-23T02:44:24.768Z,22.09
2019-05-23T02:45:24.735Z,24.16
2019-05-23T02:46:24.743Z,23.55
2019-05-23T02:47:24.722Z,25.30
2019-05-23T02:48:24.696Z,23.87
2019-05-23T02:49:24.695Z,21.80
2019-05-23T02:50:24.678Z,22.08
2019-05-23T02:51:24.669Z,22.89
2019-05-23T02:52:24.676Z,21.46
2019-05-23T02:53:24.643Z,24.02
2019-05-23T02:54:24.636Z,22.87
2019-05-23T02:55:24.633Z,22.39
2019-05-23T02:56:24.614Z,20.55
2019-05-23T02:57:24.602Z,23.29
2019-05-23T02:58:24.612Z,22.34
2019-05-23T02:59:24.585Z,22.47
2019-05-23T03:00:24.570Z,22.70
2019-05-23T03:01:24.564Z,20.84
2019-05-23T03:02:24.549Z,21.42
2019-05-23T03:03:24.535Z,18.71
2019-05-23T03:04:24.548Z,18.93
2019-05-23T03:05:24.555Z,18.44
2019-05-23T03:06:24.499Z,15.17
2019-05-23T03:07:24.498Z,17.59
2019-05-23T03:08:24.482Z,16.87
2019-05-23T03:09:24.468Z,17.21
2019-05-23T03:10:24.454Z,15.99
2019-05-23T03:11:24.469Z,12.69
2019-05-23T03:12:25.417Z,11.52
2019-05-23T03:13:24.433Z,13.88
2019-05-23T03:14:24.413Z,14.63
2019-05-23T03:15:24.426Z,16.51
2019-05-23T03:16:24.389Z,17.07
2019-05-23T03:17:24.377Z,14.67
2019-05-23T03:18:24.382Z,14.27
2019-05-23T03:19:24.372Z,14.69
2019-05-23T03:20:24.347Z,14.76
2019-05-23T03:21:24.351Z,14.46
2019-05-23T03:22:24.352Z,13.54
2019-05-23T03:23:24.317Z,9.96
2019-05-23T03:24:24.309Z,12.27
2019-05-23T03:25:24.291Z,13.73
2019-05-23T03:26:24.279Z,13.67
2019-05-23T03:27:24.275Z,10.31
2019-05-23T03:28:24.279Z,10.08
2019-05-23T03:29:24.263Z,9.65
2019-05-23T03:30:24.254Z,8.79
2019-05-23T03:31:30.749Z,9.79
2019-05-23T03:32:25.230Z,10.71
2019-05-23T03:33:24.223Z,11.41
2019-05-23T03:34:24.201Z,11.93
2019-05-23T03:35:24.210Z,12.97
2019-05-23T03:36:24.334Z,9.86
2019-05-23T03:37:24.160Z,12.49
2019-05-23T03:38:24.146Z,11.34
2019-05-23T03:39:24.137Z,11.17
2019-05-23T03:40:24.322Z,10.54
2019-05-23T03:41:24.141Z,13.40
2019-05-23T03:42:24.120Z,10.71
2019-05-23T03:43:24.189Z,10.44
2019-05-23T03:44:24.084Z,12.94
2019-05-23T03:45:24.074Z,12.62
2019-05-23T03:46:24.065Z,11.11
2019-05-23T03:47:24.058Z,11.77
2019-05-23T03:48:24.050Z,10.80
2019-05-23T03:49:24.027Z,14.36
2019-05-23T03:50:24.034Z,11.82
2019-05-23T03:51:24.006Z,12.37
2019-05-23T03:52:23.997Z,16.47
2019-05-23T03:53:23.996Z,12.54
2019-05-23T03:54:23.979Z,11.55
2019-05-23T03:55:24.059Z,13.39
2019-05-23T03:56:23.946Z,12.41
2019-05-23T03:57:25.828Z,13.39
2019-05-23T03:58:23.926Z,10.28
2019-05-23T03:59:23.944Z,13.86
2019-05-23T04:00:23.908Z,11.16
2019-05-23T04:01:23.899Z,13.05
2019-05-23T04:02:23.891Z,13.79
2019-05-23T04:03:23.887Z,12.65
2019-05-23T04:04:23.914Z,14.31
2019-05-23T04:05:23.872Z,13.82
2019-05-23T04:06:23.840Z,11.49
2019-05-23T04:07:23.833Z,15.69
2019-05-23T04:08:23.824Z,13.43
2019-05-23T04:09:23.811Z,11.31
2019-05-23T04:10:23.819Z,9.73
2019-05-23T04:11:23.785Z,11.50
2019-05-23T04:12:23.905Z,12.40
2019-05-23T04:13:23.801Z,11.48
2019-05-23T04:14:23.753Z,13.29
2019-05-23T04:15:23.748Z,13.21
2019-05-23T04:16:23.735Z,15.46
2019-05-23T04:17:23.729Z,11.84
2019-05-23T04:18:23.716Z,13.73
2019-05-23T04:19:23.716Z,13.92
2019-05-23T04:20:23.689Z,13.29
2019-05-23T04:21:23.685Z,16.58
2019-05-23T04:22:23.677Z,16.56
2019-05-23T04:23:23.657Z,16.09
2019-05-23T04:24:23.640Z,19.54
2019-05-23T04:25:23.630Z,19.28
2019-05-23T04:26:23.627Z,17.66
2019-05-23T04:27:23.609Z,14.97
2019-05-23T04:28:23.625Z,16.13
2019-05-23T04:29:23.650Z,15.53
2019-05-23T04:30:23.575Z,15.35
2019-05-23T04:31:23.563Z,15.78
2019-05-23T04:32:23.558Z,12.87
2019-05-23T04:33:23.540Z,14.81
2019-05-23T04:34:23.536Z,11.66
2019-05-23T04:35:23.538Z,11.37
2019-05-23T04:36:23.613Z,8.89
2019-05-23T04:37:23.499Z,9.83
2019-05-23T04:38:23.515Z,13.39
2019-05-23T04:39:23.507Z,11.39
2019-05-23T04:40:23.480Z,11.84
2019-05-23T04:41:23.479Z,10.98
2019-05-23T04:42:23.442Z,8.33
2019-05-23T04:43:23.441Z,8.60
2019-05-23T04:44:23.428Z,5.56
2019-05-23T04:45:23.407Z,5.63
2019-05-23T04:46:23.389Z,11.69
2019-05-23T04:47:23.406Z,13.65
2019-05-23T04:48:23.396Z,11.06
2019-05-23T04:49:23.369Z,10.49
2019-05-23T04:50:23.353Z,7.64
2019-05-23T04:51:23.349Z,11.61
2019-05-23T04:52:23.329Z,10.46
2019-05-23T04:53:23.327Z,12.95
2019-05-23T04:54:23.325Z,12.66
2019-05-23T04:55:23.305Z,8.98
2019-05-23T04:56:23.285Z,11.59
2019-05-23T04:57:23.356Z,5.72
2019-05-23T04:58:23.263Z,10.81
2019-05-23T04:59:23.259Z,12.70
2019-05-23T05:00:23.256Z,9.95
2019-05-23T05:01:23.229Z,14.17
2019-05-23T05:02:26.736Z,16.44
2019-05-23T05:03:23.225Z,25.85
2019-05-23T05:04:23.230Z,24.48
2019-05-23T05:05:23.201Z,23.18
2019-05-23T05:06:23.174Z,22.43
2019-05-23T05:07:23.171Z,21.08
2019-05-23T05:08:23.165Z,25.52
2019-05-23T05:09:23.161Z,25.64
2019-05-23T05:10:23.137Z,25.03
2019-05-23T05:11:23.120Z,25.95
2019-05-23T05:12:23.124Z,20.70
2019-05-23T05:13:23.091Z,23.48
2019-05-23T05:14:23.085Z,30.45
2019-05-23T05:15:23.091Z,24.56
2019-05-23T05:16:23.064Z,25.10
2019-05-23T05:17:23.118Z,30.52
2019-05-23T05:18:23.036Z,25.73
2019-05-23T05:19:23.050Z,25.46
2019-05-23T05:20:23.968Z,30.99
2019-05-23T05:21:23.010Z,23.95
2019-05-23T05:22:22.993Z,26.38
2019-05-23T05:23:22.989Z,17.68
2019-05-23T05:24:22.975Z,22.59
2019-05-23T05:25:22.962Z,21.68
2019-05-23T05:26:22.953Z,22.38
2019-05-23T05:27:22.939Z,24.38
2019-05-23T05:28:22.926Z,24.32
2019-05-23T05:29:22.914Z,30.38
2019-05-23T05:30:22.910Z,23.84
2019-05-23T05:31:22.936Z,17.61
2019-05-23T05:32:22.902Z,23.59
2019-05-23T05:33:22.874Z,24.25
2019-05-23T05:34:22.889Z,20.69
2019-05-23T05:35:22.943Z,26.52
2019-05-23T05:36:22.835Z,25.65
2019-05-23T05:37:22.930Z,22.97
2019-05-23T05:38:22.809Z,23.51
2019-05-23T05:39:22.797Z,26.12
2019-05-23T05:40:22.789Z,31.04
2019-05-23T05:41:22.820Z,26.77
2019-05-23T05:42:22.791Z,32.54
2019-05-23T05:43:22.758Z,27.20
2019-05-23T05:44:22.754Z,18.94
2019-05-23T05:45:22.735Z,20.45
2019-05-23T05:46:22.732Z,11.58
2019-05-23T05:47:22.717Z,17.29
2019-05-23T05:48:22.723Z,15.53
2019-05-23T05:49:22.701Z,10.04
2019-05-23T05:50:22.673Z,10.65
2019-05-23T05:51:22.667Z,13.32
2019-05-23T05:52:22.654Z,13.03
2019-05-23T05:53:22.640Z,9.43
2019-05-23T05:54:22.651Z,5.02
2019-05-23T05:55:22.641Z,12.31
2019-05-23T05:56:22.620Z,7.91
2019-05-23T05:57:22.654Z,3.58
2019-05-23T05:58:22.691Z,7.70
2019-05-23T05:59:22.589Z,8.02
2019-05-23T06:00:22.575Z,4.75
2019-05-23T06:01:33.460Z,7.13
2019-05-23T06:02:23.591Z,10.24
2019-05-23T06:03:22.561Z,7.26
2019-05-23T06:04:22.522Z,4.55
2019-05-23T06:05:22.512Z,3.09
2019-05-23T06:06:22.498Z,6.57
2019-05-23T06:07:22.503Z,2.46
2019-05-23T06:08:22.488Z,6.48
2019-05-23T06:09:22.457Z,6.30
2019-05-23T06:10:22.445Z,6.49
2019-05-23T06:11:22.442Z,3.84
2019-05-23T06:12:22.435Z,9.63
2019-05-23T06:13:22.433Z,10.24
2019-05-23T06:14:22.405Z,9.25
2019-05-23T06:15:22.393Z,8.74
2019-05-23T06:16:22.394Z,13.86
2019-05-23T06:17:22.371Z,11.48
2019-05-23T06:18:22.366Z,13.79
2019-05-23T06:19:22.351Z,10.80
2019-05-23T06:20:22.337Z,7.68
2019-05-23T06:21:22.346Z,7.59
2019-05-23T06:22:22.314Z,1.70
2019-05-23T06:23:22.317Z,12.72
2019-05-23T06:24:38.934Z,9.73
2019-05-23T06:25:23.290Z,12.94
2019-05-23T06:26:22.298Z,10.94
2019-05-23T06:27:22.257Z,11.20
2019-05-23T06:28:22.307Z,10.05
2019-05-23T06:29:22.703Z,9.45
2019-05-23T06:30:22.226Z,11.68
2019-05-23T06:31:22.235Z,11.03
2019-05-23T06:32:22.225Z,15.59
2019-05-23T06:33:24.066Z,13.86
2019-05-23T06:34:22.296Z,11.73
2019-05-23T06:35:22.179Z,11.96
2019-05-23T06:36:22.160Z,12.44
2019-05-23T06:37:22.322Z,11.10
2019-05-23T06:38:22.163Z,6.48
2019-05-23T06:39:22.130Z,3.63
2019-05-23T06:40:22.129Z,4.66
2019-05-23T06:41:22.135Z,3.47
2019-05-23T06:42:22.094Z,7.05
2019-05-23T06:43:22.093Z,7.34
2019-05-23T06:44:22.072Z,11.05
2019-05-23T06:45:22.057Z,13.59
2019-05-23T06:46:22.070Z,11.63
2019-05-23T06:47:22.047Z,13.15
2019-05-23T06:48:22.023Z,11.10
2019-05-23T06:49:22.014Z,10.74
2019-05-23T06:50:22.008Z,9.90
2019-05-23T06:51:22.025Z,7.81
2019-05-23T06:52:21.990Z,4.31
2019-05-23T06:53:22.001Z,4.08
2019-05-23T06:54:21.970Z,3.79
2019-05-23T06:55:21.946Z,7.47
2019-05-23T06:56:21.937Z,4.40
2019-05-23T06:57:21.931Z,12.55
2019-05-23T06:58:22.852Z,13.41
2019-05-23T06:59:21.924Z,10.07
2019-05-23T07:00:21.891Z,4.87
2019-05-23T07:01:21.890Z,7.07
2019-05-23T07:02:21.870Z,14.98
2019-05-23T07:03:21.872Z,9.28
2019-05-23T07:04:21.850Z,13.43
2019-05-23T07:05:21.882Z,11.72
2019-05-23T07:06:21.851Z,19.73
2019-05-23T07:07:21.812Z,19.64
2019-05-23T07:08:25.178Z,22.49
2019-05-23T07:09:21.799Z,18.22
2019-05-23T07:10:21.795Z,20.32
2019-05-23T07:11:21.780Z,20.34
2019-05-23T07:12:21.761Z,19.40
2019-05-23T07:13:21.747Z,13.32
2019-05-23T07:14:21.756Z,13.57
2019-05-23T07:15:21.729Z,22.17
2019-05-23T07:16:21.710Z,18.63
2019-05-23T07:17:21.723Z,19.23
2019-05-23T07:18:21.700Z,22.29
2019-05-23T07:19:21.676Z,21.66
2019-05-23T07:20:21.675Z,21.95
2019-05-23T07:21:21.661Z,22.22
2019-05-23T07:22:21.648Z,23.20
2019-05-23T07:23:21.661Z,19.80
2019-05-23T07:24:21.625Z,17.38
2019-05-23T07:25:21.638Z,18.89
2019-05-23T07:26:21.605Z,18.65
2019-05-23T07:27:21.600Z,16.45
2019-05-23T07:28:21.586Z,15.73
2019-05-23T07:29:21.572Z,14.53
2019-05-23T07:30:21.583Z,10.21
2019-05-23T07:31:21.563Z,19.41
2019-05-23T07:32:21.543Z,15.61
2019-05-23T07:33:21.543Z,17.13
2019-05-23T07:34:21.519Z,13.47
2019-05-23T07:35:21.510Z,16.20
2019-05-23T07:36:21.503Z,20.24
2019-05-23T07:37:21.479Z,18.29
2019-05-23T07:38:21.493Z,15.22
2019-05-23T07:39:21.458Z,20.19
2019-05-23T07:40:21.455Z,21.57
2019-05-23T07:41:21.536Z,18.29
2019-05-23T07:42:21.425Z,19.35
2019-05-23T07:43:21.546Z,15.87
2019-05-23T07:44:21.427Z,4.51
2019-05-23T07:45:21.561Z,11.63
2019-05-23T07:46:21.382Z,17.21
2019-05-23T07:47:21.374Z,15.30
2019-05-23T07:48:21.380Z,19.67
2019-05-23T07:49:21.348Z,20.83
2019-05-23T07:50:21.373Z,23.12
2019-05-23T07:51:21.343Z,18.85
2019-05-23T07:52:21.311Z,18.84
2019-05-23T07:53:21.301Z,17.78
2019-05-23T07:54:21.296Z,22.00
2019-05-23T07:55:21.281Z,20.39
2019-05-23T07:56:21.290Z,20.40
2019-05-23T07:57:21.252Z,19.60
2019-05-23T07:58:21.262Z,20.80
2019-05-23T07:59:21.236Z,25.01
2019-05-23T08:00:21.228Z,25.42
2019-05-23T08:01:21.212Z,25.27
2019-05-23T08:02:25.521Z,19.57
2019-05-23T08:03:21.223Z,23.90
2019-05-23T08:04:22.465Z,24.29
2019-05-23T08:05:21.173Z,19.39
2019-05-23T08:06:21.166Z,21.28
2019-05-23T08:07:21.142Z,26.29
2019-05-23T08:08:21.126Z,24.62
2019-05-23T08:09:21.145Z,20.78
2019-05-23T08:10:33.158Z,21.84
2019-05-23T08:11:22.096Z,29.05
2019-05-23T08:12:21.085Z,28.47
2019-05-23T08:13:21.084Z,24.40
2019-05-23T08:14:21.066Z,29.98
2019-05-23T08:15:21.051Z,24.67
2019-05-23T08:16:21.050Z,19.07
2019-05-23T08:17:21.047Z,22.22
2019-05-23T08:18:21.080Z,23.73
2019-05-23T08:19:21.017Z,24.71
2019-05-23T08:20:20.987Z,22.89
2019-05-23T08:21:20.992Z,21.46
2019-05-23T08:22:20.967Z,28.74
2019-05-23T08:23:20.958Z,25.24
2019-05-23T08:24:20.952Z,25.30
2019-05-23T08:25:20.944Z,25.23
2019-05-23T08:26:20.945Z,28.43
2019-05-23T08:27:20.912Z,28.54
2019-05-23T08:28:20.906Z,29.84
2019-05-23T08:29:27.991Z,27.84
2019-05-23T08:30:21.879Z,26.27
2019-05-23T08:31:20.864Z,27.35
2019-05-23T08:32:20.858Z,20.94
2019-05-23T08:33:20.849Z,27.78
2019-05-23T08:34:37.846Z,26.37
2019-05-23T08:35:21.827Z,24.61
2019-05-23T08:36:20.818Z,20.04
2019-05-23T08:37:20.802Z,27.80
2019-05-23T08:38:20.788Z,28.30
2019-05-23T08:39:20.781Z,25.93
2019-05-23T08:40:20.768Z,24.89
2019-05-23T08:41:20.771Z,21.67
2019-05-23T08:42:20.740Z,20.23
2019-05-23T08:43:20.735Z,14.69
2019-05-23T08:44:20.734Z,18.90
2019-05-23T08:45:20.705Z,29.29
2019-05-23T08:46:20.700Z,27.37
2019-05-23T08:47:20.690Z,24.35
2019-05-23T08:48:20.694Z,25.33
2019-05-23T08:49:20.678Z,24.27
2019-05-23T08:50:20.678Z,18.39
2019-05-23T08:51:20.662Z,10.20
2019-05-23T08:52:20.639Z,19.55
2019-05-23T08:53:20.613Z,27.75
2019-05-23T08:54:20.606Z,26.14
2019-05-23T08:55:20.611Z,26.05
2019-05-23T08:56:20.583Z,24.90
2019-05-23T08:57:20.598Z,25.55
2019-05-23T08:58:20.583Z,26.29
2019-05-23T08:59:20.549Z,28.14
2019-05-23T09:00:20.597Z,26.38
2019-05-23T09:01:20.537Z,33.78
2019-05-23T09:02:20.511Z,24.12
2019-05-23T09:03:20.497Z,22.39
2019-05-23T09:04:20.511Z,24.28
2019-05-23T09:05:20.495Z,22.49
2019-05-23T09:06:20.471Z,14.92
2019-05-23T09:07:20.501Z,18.54
2019-05-23T09:08:20.448Z,18.92
2019-05-23T09:09:29.738Z,25.36
2019-05-23T09:10:21.426Z,27.46
2019-05-23T09:11:20.411Z,25.95
2019-05-23T09:12:20.407Z,27.91
2019-05-23T09:13:20.409Z,23.12
2019-05-23T09:14:20.394Z,21.98
2019-05-23T09:15:20.377Z,27.84
2019-05-23T09:16:20.351Z,23.27
2019-05-23T09:17:20.344Z,21.98
2019-05-23T09:18:20.337Z,28.01
2019-05-23T09:19:20.351Z,30.31
2019-05-23T09:20:20.305Z,22.96
2019-05-23T09:21:20.300Z,29.27
2019-05-23T09:22:20.289Z,31.83
2019-05-23T09:23:20.291Z,28.94
2019-05-23T09:24:20.264Z,21.31
2019-05-23T09:25:20.248Z,22.30
2019-05-23T09:26:20.241Z,23.56
2019-05-23T09:27:20.231Z,24.92
2019-05-23T09:28:20.217Z,23.75
2019-05-23T09:29:20.249Z,26.47
2019-05-23T09:30:20.197Z,23.70
2019-05-23T09:31:20.178Z,28.77
2019-05-23T09:32:20.184Z,23.06
2019-05-23T09:33:20.170Z,28.46
2019-05-23T09:34:20.149Z,26.73
2019-05-23T09:35:22.178Z,25.37
2019-05-23T09:36:20.126Z,18.38
2019-05-23T09:37:20.161Z,14.46
2019-05-23T09:38:20.116Z,26.63
2019-05-23T09:39:20.115Z,29.35
2019-05-23T09:40:20.100Z,26.42
2019-05-23T09:41:20.069Z,28.84
2019-05-23T09:42:20.057Z,27.98
2019-05-23T09:43:20.047Z,23.53
2019-05-23T09:44:20.053Z,25.30
2019-05-23T09:45:20.026Z,19.12
2019-05-23T09:46:20.013Z,20.25
2019-05-23T09:47:20.113Z,25.54
2019-05-23T09:48:19.987Z,25.05
2019-05-23T09:49:19.982Z,24.40
2019-05-23T09:50:20.010Z,24.28
2019-05-23T09:51:19.982Z,25.78
2019-05-23T09:52:19.943Z,28.89
2019-05-23T09:53:19.933Z,21.53
2019-05-23T09:54:19.920Z,21.37
2019-05-23T09:55:19.914Z,31.06
2019-05-23T09:56:19.896Z,32.41
2019-05-23T09:57:19.921Z,32.56
2019-05-23T09:58:19.872Z,30.70
2019-05-23T09:59:19.865Z,31.67
2019-05-23T10:00:19.853Z,28.22
2019-05-23T10:01:19.968Z,20.63
2019-05-23T10:02:19.852Z,26.22
2019-05-23T10:03:19.817Z,26.33
2019-05-23T10:04:19.835Z,23.72
2019-05-23T10:05:40.194Z,25.35
2019-05-23T10:06:20.783Z,26.53
2019-05-23T10:07:19.780Z,28.50
2019-05-23T10:08:19.764Z,24.60
2019-05-23T10:09:19.756Z,20.62
2019-05-23T10:10:19.734Z,29.04
2019-05-23T10:11:19.729Z,26.10
2019-05-23T10:12:22.446Z,24.59
2019-05-23T10:13:36.048Z,23.60
2019-05-23T10:14:20.703Z,27.39
2019-05-23T10:15:19.684Z,16.17
2019-05-23T10:16:19.664Z,26.07
2019-05-23T10:17:19.686Z,23.40
2019-05-23T10:18:19.655Z,19.82
2019-05-23T10:19:19.634Z,18.97
2019-05-23T10:20:19.623Z,19.15
2019-05-23T10:21:19.615Z,23.41
2019-05-23T10:22:19.599Z,17.86
2019-05-23T10:23:19.597Z,20.92
2019-05-23T10:24:19.628Z,21.99
2019-05-23T10:25:19.599Z,23.18
2019-05-23T10:26:19.557Z,16.63
2019-05-23T10:27:19.546Z,22.24
2019-05-23T10:28:19.532Z,24.42
2019-05-23T10:29:19.523Z,21.79
2019-05-23T10:30:19.509Z,16.79
2019-05-23T10:31:19.495Z,19.84
2019-05-23T10:32:19.504Z,21.80
2019-05-23T10:33:19.499Z,12.89
2019-05-23T10:34:19.467Z,20.63
2019-05-23T10:35:19.468Z,19.17
2019-05-23T10:36:19.459Z,22.65
2019-05-23T10:37:19.519Z,22.99
2019-05-23T10:38:19.423Z,24.04
2019-05-23T10:39:19.409Z,29.72
2019-05-23T10:40:19.417Z,29.73
2019-05-23T10:41:19.398Z,22.61
2019-05-23T10:42:19.378Z,19.17
2019-05-23T10:43:19.362Z,22.50
2019-05-23T10:44:19.364Z,25.79
2019-05-23T10:45:19.337Z,25.48
2019-05-23T10:46:19.360Z,25.42
2019-05-23T10:47:19.315Z,26.96
2019-05-23T10:48:19.325Z,23.48
2019-05-23T10:49:19.300Z,31.10
2019-05-23T10:50:19.285Z,24.51
2019-05-23T10:51:19.293Z,27.80
2019-05-23T10:52:19.271Z,22.63
2019-05-23T10:53:19.306Z,21.22
2019-05-23T10:54:19.303Z,19.62
2019-05-23T10:55:19.254Z,22.29
2019-05-23T10:56:20.580Z,25.04
2019-05-23T10:57:19.204Z,20.23
2019-05-23T10:58:19.236Z,28.71
2019-05-23T10:59:19.226Z,20.15
2019-05-23T11:00:19.173Z,25.07
2019-05-23T11:01:19.160Z,19.58
2019-05-23T11:02:19.154Z,21.78
2019-05-23T11:03:19.185Z,22.34
2019-05-23T11:04:19.130Z,20.65
2019-05-23T11:05:19.120Z,17.23
2019-05-23T11:06:19.105Z,15.94
2019-05-23T11:07:19.094Z,24.95
2019-05-23T11:08:19.094Z,20.13
2019-05-23T11:09:36.193Z,20.31
2019-05-23T11:10:20.065Z,18.63
2019-05-23T11:11:19.072Z,16.85
2019-05-23T11:12:19.036Z,17.97
2019-05-23T11:13:19.034Z,17.73
2019-05-23T11:14:19.025Z,18.41
2019-05-23T11:15:19.026Z,11.61
2019-05-23T11:16:18.997Z,16.38
2019-05-23T11:17:18.975Z,16.22
2019-05-23T11:18:18.988Z,26.26
2019-05-23T11:19:18.958Z,17.28
2019-05-23T11:20:18.952Z,25.07
2019-05-23T11:21:18.946Z,20.45
2019-05-23T11:22:18.922Z,16.98
2019-05-23T11:23:18.937Z,12.13
2019-05-23T11:24:18.899Z,7.32
2019-05-23T11:25:18.905Z,16.79
2019-05-23T11:26:18.888Z,14.76
2019-05-23T11:27:18.874Z,21.90
2019-05-23T11:28:18.856Z,12.12
2019-05-23T11:29:18.868Z,19.41
2019-05-23T11:30:18.841Z,17.55
2019-05-23T11:31:18.857Z,20.31
2019-05-23T11:32:20.171Z,10.85
2019-05-23T11:33:18.805Z,15.91
2019-05-23T11:34:18.811Z,10.94
2019-05-23T11:35:18.817Z,9.91
2019-05-23T11:36:33.914Z,16.38
2019-05-23T11:37:19.754Z,4.35
2019-05-23T11:38:18.747Z,13.65
2019-05-23T11:39:18.726Z,14.69
2019-05-23T11:40:18.720Z,23.87
2019-05-23T11:41:18.764Z,22.06
2019-05-23T11:42:18.720Z,8.60
2019-05-23T11:43:18.702Z,19.80
2019-05-23T11:44:18.677Z,19.84
2019-05-23T11:45:18.668Z,18.74
2019-05-23T11:46:18.654Z,17.23
2019-05-23T11:47:18.644Z,19.88
2019-05-23T11:48:18.640Z,15.55
2019-05-23T11:49:18.642Z,17.18
2019-05-23T11:50:18.609Z,7.79
2019-05-23T11:51:18.603Z,-5.35
2019-05-23T11:52:18.590Z,13.66
2019-05-23T11:53:18.607Z,21.69
2019-05-23T11:54:18.562Z,21.18
2019-05-23T11:55:18.556Z,17.07
2019-05-23T11:56:18.549Z,19.52
2019-05-23T11:57:18.562Z,23.37
2019-05-23T11:58:18.524Z,21.47
2019-05-23T11:59:18.653Z,12.99
2019-05-23T12:00:18.787Z,14.21
2019-05-23T12:01:21.311Z,13.50
2019-05-23T12:02:18.480Z,8.29
2019-05-23T12:03:18.487Z,18.76
2019-05-23T12:04:18.452Z,17.39
2019-05-23T12:05:18.444Z,14.45
2019-05-23T12:06:18.487Z,11.85
2019-05-23T12:07:18.417Z,21.14
2019-05-23T12:08:18.405Z,16.58
2019-05-23T12:09:18.490Z,15.80
2019-05-23T12:10:18.441Z,16.37
2019-05-23T12:11:18.369Z,19.68
2019-05-23T12:12:18.367Z,12.47
2019-05-23T12:13:18.351Z,17.34
2019-05-23T12:14:18.341Z,16.44
2019-05-23T12:15:18.332Z,16.15
2019-05-23T12:16:18.334Z,16.96
2019-05-23T12:17:18.311Z,19.68
2019-05-23T12:18:18.299Z,13.84
2019-05-23T12:19:18.297Z,11.79
2019-05-23T12:20:18.271Z,9.71
2019-05-23T12:21:18.274Z,7.58
2019-05-23T12:22:18.250Z,9.01
2019-05-23T12:23:18.236Z,15.36
2019-05-23T12:24:18.232Z,15.85
2019-05-23T12:25:22.578Z,13.27
2019-05-23T12:26:18.212Z,-2.55
2019-05-23T12:27:18.200Z,-5.03
2019-05-23T12:28:18.215Z,-1.54
2019-05-23T12:29:18.172Z,-3.81
2019-05-23T12:30:18.158Z,3.70
2019-05-23T12:31:18.141Z,17.04
2019-05-23T12:32:18.141Z,16.76
2019-05-23T12:33:18.139Z,19.86
2019-05-23T12:34:18.124Z,17.50
2019-05-23T12:35:18.099Z,25.86
2019-05-23T12:36:18.094Z,19.17
2019-05-23T12:37:20.143Z,15.60
2019-05-23T12:38:18.096Z,8.58
2019-05-23T12:39:18.389Z,9.86
2019-05-23T12:40:18.042Z,12.05
2019-05-23T12:41:18.045Z,6.20
2019-05-23T12:42:18.022Z,14.58
2019-05-23T12:43:18.010Z,13.93
2019-05-23T12:44:18.278Z,11.50
2019-05-23T12:45:17.982Z,25.39
2019-05-23T12:46:17.980Z,28.69
2019-05-23T12:47:18.023Z,20.97
2019-05-23T12:48:17.966Z,24.70
2019-05-23T12:49:17.968Z,29.11
2019-05-23T12:50:17.928Z,22.87
2019-05-23T12:51:17.918Z,12.48
2019-05-23T12:52:17.911Z,17.60
2019-05-23T12:53:17.950Z,21.24
2019-05-23T12:54:17.901Z,23.19
2019-05-23T12:55:17.871Z,19.03
2019-05-23T12:56:17.869Z,18.92
2019-05-23T12:57:17.854Z,19.75